TAF Text Data
IDs:
Format:
Raw Decoded Include METAR

Data at: 1958 UTC 12 Dec 2018

KTCC 121953Z AUTO 26028G34KT 10SM CLR 21/M05 A2970 RMK AO2 PK WND 26034/1952 SLP031 T02061050

KTCC 121741Z 1218/1318 25013KT P6SM SKC
  FM121900 25015G25KT P6SM SKC
  FM122100 26021G32KT P6SM SCT200
  FM130600 31020G30KT P6SM VCSH BKN050
  FM130900 02032G45KT 3SM -SN BR OVC025